Time;durP1;ratioP1;P1;durP2;ratioP2;P2;SDS_P1;SDS_P2;PMS_P1;PMS_P2;Temp;Humidity;BMP_temperature;BMP_pressure;BME280_temperature;BME280_humidity;BME280_pressure;Samples;Min_cycle;Max_cycle;Signal;HPM_P1;HPM_P2
2023/12/17 00:01:28;;;;;;;8.07;4.28;;;9.00;99.90;;;;;;5055265;28;20049;-18
2023/12/17 00:03:53;;;;;;;11.07;5.13;;;9.00;99.90;;;;;;5056241;28;20063;-18
2023/12/17 00:06:19;;;;;;;14.52;5.90;;;9.10;99.90;;;;;;5054152;28;20044;-17
2023/12/17 00:08:46;;;;;;;12.80;3.67;;;9.10;99.90;;;;;;5055210;28;20053;-18
2023/12/17 00:11:11;;;;;;;12.77;5.35;;;9.10;99.90;;;;;;5055280;28;20045;-18
2023/12/17 00:13:37;;;;;;;16.33;6.75;;;9.10;99.90;;;;;;5054824;28;20056;-18
2023/12/17 00:16:04;;;;;;;15.25;5.13;;;9.00;99.90;;;;;;5057825;28;20132;-18
2023/12/17 00:18:30;;;;;;;17.52;6.53;;;9.00;99.90;;;;;;5088239;28;20057;-18
2023/12/17 00:20:56;;;;;;;18.52;5.68;;;9.00;99.90;;;;;;5057518;28;20075;-18
2023/12/17 00:23:22;;;;;;;12.77;5.68;;;9.00;99.90;;;;;;5072992;28;20051;-18
2023/12/17 00:25:47;;;;;;;13.20;5.68;;;9.00;99.90;;;;;;5064478;28;20418;-18
2023/12/17 00:28:13;;;;;;;11.27;5.85;;;9.00;99.90;;;;;;5056289;28;20434;-18
2023/12/17 00:30:39;;;;;;;9.65;5.10;;;9.00;99.90;;;;;;5056438;28;20064;-18
2023/12/17 00:33:05;;;;;;;12.73;6.13;;;9.00;99.90;;;;;;5041385;28;20045;-18
2023/12/17 00:35:31;;;;;;;6.97;4.32;;;9.10;99.90;;;;;;5058106;28;20060;-18
2023/12/17 00:37:56;;;;;;;8.00;4.30;;;9.00;99.90;;;;;;5055722;28;20572;-17
2023/12/17 00:40:22;;;;;;;9.25;5.65;;;9.10;99.90;;;;;;5067295;28;20535;-18
2023/12/17 00:42:48;;;;;;;11.02;5.15;;;9.10;99.90;;;;;;5040519;28;20123;-18
2023/12/17 00:45:14;;;;;;;8.68;4.75;;;9.10;99.90;;;;;;5072322;28;20139;-18
2023/12/17 00:47:40;;;;;;;11.55;5.15;;;9.10;99.90;;;;;;5057009;28;20403;-18
2023/12/17 00:50:06;;;;;;;14.40;5.53;;;9.10;99.90;;;;;;5056168;28;20092;-18
2023/12/17 00:52:33;;;;;;;13.93;5.28;;;9.10;99.90;;;;;;5057195;28;20570;-18
2023/12/17 00:54:59;;;;;;;11.85;6.43;;;9.10;99.90;;;;;;5055695;28;20052;-18
2023/12/17 00:57:27;;;;;;;11.75;6.82;;;9.10;99.90;;;;;;5054277;28;20139;-18
2023/12/17 00:59:53;;;;;;;15.18;6.60;;;9.10;99.90;;;;;;5054745;28;20494;-18
2023/12/17 01:02:19;;;;;;;11.80;5.60;;;9.10;99.90;;;;;;5053612;28;20041;-18
2023/12/17 01:04:44;;;;;;;14.65;6.30;;;9.10;99.90;;;;;;5060235;28;20045;-18
2023/12/17 01:07:10;;;;;;;10.38;4.53;;;9.10;99.90;;;;;;5053882;28;20037;-18
2023/12/17 01:09:36;;;;;;;5.15;3.10;;;9.20;99.90;;;;;;5054916;28;20045;-18
2023/12/17 01:12:03;;;;;;;16.42;4.93;;;9.20;99.90;;;;;;5053990;28;20060;-18
2023/12/17 01:14:34;;;;;;;13.00;5.50;;;9.20;99.90;;;;;;5055016;28;20499;-18
2023/12/17 01:17:04;;;;;;;11.15;5.90;;;9.20;99.90;;;;;;5053934;28;20049;-18
2023/12/17 01:19:33;;;;;;;7.90;4.50;;;9.20;99.90;;;;;;5054596;28;20040;-18
2023/12/17 01:22:00;;;;;;;13.10;4.93;;;9.10;99.90;;;;;;5053848;28;20049;-18
2023/12/17 01:24:25;;;;;;;10.00;4.70;;;9.20;99.90;;;;;;5054615;28;20135;-18
2023/12/17 01:26:52;;;;;;;7.40;4.43;;;9.20;99.90;;;;;;5055552;28;20037;-18
2023/12/17 01:29:18;;;;;;;9.35;4.63;;;9.10;99.90;;;;;;5054423;28;20049;-18
2023/12/17 01:31:44;;;;;;;10.90;5.55;;;9.10;99.90;;;;;;5054762;28;20052;-18
2023/12/17 01:34:09;;;;;;;14.00;6.85;;;9.10;99.90;;;;;;5053297;28;20044;-18
2023/12/17 01:36:35;;;;;;;9.95;4.72;;;9.20;99.90;;;;;;5056599;28;20110;-18
2023/12/17 01:39:01;;;;;;;12.93;5.45;;;9.20;99.90;;;;;;5057879;28;20167;-18
2023/12/17 01:41:27;;;;;;;10.38;4.00;;;9.20;99.90;;;;;;5054260;28;20106;-18
2023/12/17 01:43:53;;;;;;;9.02;4.32;;;9.20;99.90;;;;;;5054291;28;20135;-18
2023/12/17 01:46:19;;;;;;;11.75;5.68;;;9.20;99.90;;;;;;5058362;28;20045;-18
2023/12/17 01:48:45;;;;;;;9.85;4.82;;;9.20;99.90;;;;;;5054773;28;20049;-18
2023/12/17 01:51:11;;;;;;;8.48;4.28;;;9.20;99.90;;;;;;5057861;28;20161;-18
2023/12/17 01:53:40;;;;;;;10.27;4.20;;;9.30;99.90;;;;;;5065938;28;20041;-18
2023/12/17 01:56:06;;;;;;;10.30;5.38;;;9.30;99.90;;;;;;5055819;28;20045;-18
2023/12/17 01:58:32;;;;;;;11.93;4.53;;;9.30;99.90;;;;;;5054041;28;20056;-18
2023/12/17 02:00:59;;;;;;;12.77;5.45;;;9.30;99.90;;;;;;5054795;28;20044;-18
2023/12/17 02:03:25;;;;;;;11.82;4.65;;;9.20;99.90;;;;;;5056552;28;20060;-18
2023/12/17 02:05:50;;;;;;;8.48;4.20;;;9.20;99.90;;;;;;5068693;28;20045;-18
2023/12/17 02:08:16;;;;;;;9.82;4.60;;;9.20;99.90;;;;;;5053562;28;20041;-18
2023/12/17 02:10:42;;;;;;;11.52;5.45;;;9.20;99.90;;;;;;5055433;28;20104;-18
2023/12/17 02:13:10;;;;;;;10.75;4.88;;;9.10;99.90;;;;;;5054732;28;20057;-18
2023/12/17 02:15:39;;;;;;;13.38;5.20;;;9.10;99.90;;;;;;5056786;28;20055;-18
2023/12/17 02:18:05;;;;;;;8.38;4.50;;;9.20;99.90;;;;;;5053748;28;20051;-18
2023/12/17 02:20:32;;;;;;;12.52;4.57;;;9.20;99.90;;;;;;5054200;28;20064;-17
2023/12/17 02:22:58;;;;;;;10.38;5.28;;;9.10;99.90;;;;;;5069868;28;20414;-18
2023/12/17 02:25:25;;;;;;;8.73;4.13;;;9.20;99.90;;;;;;5063305;28;20083;-18
2023/12/17 02:27:51;;;;;;;12.95;5.05;;;9.20;99.90;;;;;;5060052;28;20041;-18
2023/12/17 02:30:16;;;;;;;9.75;4.97;;;9.20;99.90;;;;;;5053332;28;20041;-18
2023/12/17 02:32:42;;;;;;;10.35;5.20;;;9.10;99.90;;;;;;5053606;28;20045;-18
2023/12/17 02:35:08;;;;;;;10.00;4.38;;;9.10;99.90;;;;;;5054655;28;20041;-18
2023/12/17 02:37:34;;;;;;;7.80;4.05;;;9.10;99.90;;;;;;5053842;28;20124;-18
2023/12/17 02:39:59;;;;;;;11.15;4.75;;;9.20;99.90;;;;;;5047823;28;20083;-18
2023/12/17 02:42:25;;;;;;;11.85;5.25;;;9.10;99.90;;;;;;5074091;28;20094;-18
2023/12/17 02:44:51;;;;;;;11.50;4.10;;;9.20;99.90;;;;;;5066548;28;20045;-18
2023/12/17 02:47:17;;;;;;;11.13;4.22;;;9.20;99.90;;;;;;5057549;28;20044;-18
2023/12/17 02:49:43;;;;;;;11.20;4.63;;;9.20;99.90;;;;;;5035594;28;20049;-18
2023/12/17 02:52:08;;;;;;;10.07;4.70;;;9.10;99.90;;;;;;5059891;28;20045;-18
2023/12/17 02:54:35;;;;;;;11.85;4.18;;;9.10;99.90;;;;;;5053439;28;20094;-18
2023/12/17 02:57:01;;;;;;;11.77;3.97;;;9.10;99.90;;;;;;5055255;28;20045;-18
2023/12/17 02:59:27;;;;;;;10.40;4.82;;;9.10;99.90;;;;;;5053384;28;20052;-18
2023/12/17 03:01:52;;;;;;;10.35;3.92;;;9.10;99.90;;;;;;5056259;28;20041;-18
2023/12/17 03:04:19;;;;;;;14.40;4.10;;;9.10;99.90;;;;;;5053339;28;20045;-18
2023/12/17 03:06:44;;;;;;;9.35;3.75;;;9.10;99.90;;;;;;5067823;28;20044;-18
2023/12/17 03:09:13;;;;;;;11.52;4.10;;;9.10;99.90;;;;;;5062285;28;20045;-18
2023/12/17 03:11:39;;;;;;;9.90;4.13;;;9.20;99.90;;;;;;5052076;28;20041;-18
2023/12/17 03:14:05;;;;;;;9.68;4.03;;;9.20;99.90;;;;;;5053191;28;20091;-18
2023/12/17 03:16:31;;;;;;;11.68;4.72;;;9.10;99.90;;;;;;5055106;28;20052;-18
2023/12/17 03:18:56;;;;;;;12.45;4.65;;;9.20;99.90;;;;;;5053161;28;20132;-18
2023/12/17 03:21:23;;;;;;;7.63;4.53;;;9.10;99.90;;;;;;5060882;28;20132;-18
2023/12/17 03:23:50;;;;;;;8.05;4.38;;;9.10;99.90;;;;;;5053288;28;20049;-18
2023/12/17 03:26:16;;;;;;;11.05;4.53;;;9.10;99.90;;;;;;5056439;28;20056;-18
2023/12/17 03:28:42;;;;;;;14.45;4.60;;;9.20;99.90;;;;;;5053064;28;20036;-18
2023/12/17 03:31:11;;;;;;;10.70;4.38;;;9.20;99.90;;;;;;5054804;28;20071;-18
2023/12/17 03:33:37;;;;;;;13.82;4.72;;;9.20;99.90;;;;;;5052006;28;20049;-19
2023/12/17 03:36:03;;;;;;;10.57;4.50;;;9.10;99.90;;;;;;5056043;28;20049;-18
2023/12/17 03:38:28;;;;;;;13.35;4.90;;;9.10;99.90;;;;;;5052970;28;20045;-18
2023/12/17 03:40:54;;;;;;;12.75;4.53;;;9.10;99.90;;;;;;5054480;28;20428;-18
2023/12/17 03:43:20;;;;;;;11.82;3.95;;;9.00;99.90;;;;;;5058220;28;20052;-18
2023/12/17 03:45:45;;;;;;;14.30;5.20;;;9.00;99.90;;;;;;5055779;28;20075;-18
2023/12/17 03:48:11;;;;;;;13.35;4.03;;;9.00;99.90;;;;;;5057847;28;20132;-18
2023/12/17 03:50:38;;;;;;;8.25;4.05;;;9.00;99.90;;;;;;5062627;28;20068;-18
2023/12/17 03:53:10;;;;;;;10.15;3.63;;;9.00;99.90;;;;;;5076419;28;20049;-18
2023/12/17 03:55:37;;;;;;;11.48;5.43;;;9.00;99.90;;;;;;5074653;28;20394;-18
2023/12/17 03:58:03;;;;;;;13.55;6.00;;;9.00;99.90;;;;;;5057990;28;20037;-18
2023/12/17 04:00:29;;;;;;;5.68;4.05;;;9.00;99.90;;;;;;5056982;28;20124;-18
2023/12/17 04:02:55;;;;;;;13.98;4.65;;;9.00;99.90;;;;;;5057920;28;20123;-18
2023/12/17 04:05:21;;;;;;;11.02;5.63;;;9.00;99.90;;;;;;5057332;28;20124;-18
2023/12/17 04:07:46;;;;;;;15.32;6.15;;;9.00;99.90;;;;;;5054930;28;20049;-18
2023/12/17 04:10:12;;;;;;;17.17;5.50;;;9.00;99.90;;;;;;5056094;28;20037;-18
2023/12/17 04:12:38;;;;;;;12.07;4.53;;;9.00;99.90;;;;;;5059630;28;20084;-18
2023/12/17 04:15:04;;;;;;;8.93;4.90;;;9.00;99.90;;;;;;5063188;28;20040;-18
2023/12/17 04:17:30;;;;;;;12.55;5.28;;;9.00;99.90;;;;;;5055951;28;20041;-18
2023/12/17 04:19:56;;;;;;;8.82;4.72;;;9.10;99.90;;;;;;5042884;28;20093;-18
2023/12/17 04:22:22;;;;;;;15.90;6.90;;;9.00;99.90;;;;;;5076499;28;20101;-18
2023/12/17 04:24:47;;;;;;;16.17;6.18;;;9.00;99.90;;;;;;5075145;28;20048;-18
2023/12/17 04:27:13;;;;;;;14.77;5.68;;;9.00;99.90;;;;;;5058280;28;20496;-18
2023/12/17 04:29:41;;;;;;;13.32;5.78;;;9.00;99.90;;;;;;5055689;28;20052;-18
2023/12/17 04:32:07;;;;;;;12.68;5.82;;;9.00;99.90;;;;;;5057610;28;20056;-18
2023/12/17 04:34:33;;;;;;;17.63;5.78;;;9.00;99.90;;;;;;5058675;28;20052;-18
2023/12/17 04:36:59;;;;;;;14.60;5.93;;;9.00;99.90;;;;;;5054395;28;20041;-18
2023/12/17 04:39:28;;;;;;;13.55;5.75;;;8.90;99.90;;;;;;5054392;28;20045;-18
2023/12/17 04:41:54;;;;;;;15.40;5.88;;;8.90;99.90;;;;;;5055903;28;20036;-18
2023/12/17 04:44:20;;;;;;;10.35;4.68;;;8.90;99.90;;;;;;5055453;28;20045;-18
2023/12/17 04:46:46;;;;;;;14.52;5.40;;;8.90;99.90;;;;;;5057402;28;20063;-18
2023/12/17 04:49:12;;;;;;;14.73;6.47;;;8.90;99.90;;;;;;5054783;28;20162;-18
2023/12/17 04:51:37;;;;;;;13.07;6.47;;;9.00;99.90;;;;;;5057840;28;20045;-18
2023/12/17 04:54:03;;;;;;;12.77;6.38;;;8.90;99.90;;;;;;5054783;28;20470;-18
2023/12/17 04:56:29;;;;;;;14.57;6.53;;;9.00;99.90;;;;;;5060425;28;20045;-18
2023/12/17 04:58:55;;;;;;;13.52;6.75;;;8.90;99.90;;;;;;5053907;28;20135;-18
2023/12/17 05:01:20;;;;;;;17.33;6.70;;;8.90;99.90;;;;;;5055088;28;20041;-19
2023/12/17 05:03:46;;;;;;;13.57;5.78;;;8.90;99.90;;;;;;5054191;28;20076;-18
2023/12/17 05:06:12;;;;;;;11.52;5.18;;;8.90;99.90;;;;;;5054496;28;20462;-19
2023/12/17 05:08:38;;;;;;;17.02;5.32;;;8.90;99.90;;;;;;5055563;28;20048;-19
2023/12/17 05:11:04;;;;;;;14.07;5.38;;;8.90;99.90;;;;;;5058458;28;20037;-18
2023/12/17 05:13:30;;;;;;;8.60;5.03;;;8.90;99.90;;;;;;5053342;28;20049;-18
2023/12/17 05:15:56;;;;;;;9.75;5.15;;;8.90;99.90;;;;;;5059243;28;20392;-19
2023/12/17 05:18:21;;;;;;;18.80;6.18;;;8.90;99.90;;;;;;5054807;28;20045;-19
2023/12/17 05:20:48;;;;;;;13.35;5.50;;;8.80;99.90;;;;;;5063519;28;20059;-18
2023/12/17 05:23:14;;;;;;;15.70;6.32;;;8.80;99.90;;;;;;5074706;28;20120;-18
2023/12/17 05:25:40;;;;;;;12.25;6.15;;;8.80;99.90;;;;;;5065338;28;20153;-18
2023/12/17 05:28:08;;;;;;;13.52;6.45;;;8.80;99.90;;;;;;5054613;28;20056;-19
2023/12/17 05:30:37;;;;;;;9.85;5.95;;;8.80;99.90;;;;;;5054906;28;20048;-18
2023/12/17 05:33:03;;;;;;;12.90;6.78;;;8.80;99.90;;;;;;5056898;28;20402;-19
2023/12/17 05:35:29;;;;;;;16.00;6.22;;;8.70;99.90;;;;;;5059022;28;20049;-18
2023/12/17 05:37:55;;;;;;;14.32;6.43;;;8.80;99.90;;;;;;5054637;28;20418;-18
2023/12/17 05:40:21;;;;;;;11.38;6.47;;;8.80;99.90;;;;;;5055111;28;20128;-18
2023/12/17 05:42:46;;;;;;;14.25;6.90;;;8.70;99.90;;;;;;5055412;28;20073;-18
2023/12/17 05:45:12;;;;;;;17.70;7.13;;;8.70;99.90;;;;;;5054587;28;20037;-19
2023/12/17 05:47:41;;;;;;;15.98;7.43;;;8.70;99.90;;;;;;5054649;28;20048;-19
2023/12/17 05:50:08;;;;;;;15.98;7.22;;;8.70;99.90;;;;;;5054237;28;20049;-19
2023/12/17 05:52:34;;;;;;;13.98;6.97;;;8.70;99.90;;;;;;5069209;28;20044;-18
2023/12/17 05:55:00;;;;;;;13.73;6.75;;;8.70;99.90;;;;;;5074376;28;20102;-19
2023/12/17 05:57:26;;;;;;;14.38;6.97;;;8.70;99.90;;;;;;5057019;28;20134;-18
2023/12/17 05:59:52;;;;;;;12.82;6.80;;;8.70;99.90;;;;;;5059232;28;20049;-18
2023/12/17 06:02:17;;;;;;;17.58;6.30;;;8.70;99.90;;;;;;5055224;28;20121;-19
2023/12/17 06:04:43;;;;;;;17.75;6.63;;;8.70;99.90;;;;;;5052861;28;20484;-19
2023/12/17 06:07:09;;;;;;;18.20;8.77;;;8.70;99.90;;;;;;5057530;28;20091;-18
2023/12/17 06:09:35;;;;;;;13.10;7.00;;;8.70;99.90;;;;;;5052719;28;20040;-19
2023/12/17 06:12:01;;;;;;;12.43;6.82;;;8.70;99.90;;;;;;5053862;28;20091;-19
2023/12/17 06:14:28;;;;;;;11.95;5.53;;;8.70;99.90;;;;;;5053832;28;20041;-19
2023/12/17 06:16:54;;;;;;;14.55;7.53;;;8.70;99.90;;;;;;5055655;28;20495;-19
2023/12/17 06:19:19;;;;;;;16.90;6.82;;;8.70;99.90;;;;;;5053767;28;20056;-19
2023/12/17 06:21:45;;;;;;;12.57;6.03;;;8.70;99.90;;;;;;5052830;28;20203;-19
2023/12/17 06:24:11;;;;;;;9.38;4.95;;;8.70;99.90;;;;;;5053552;28;20053;-19
2023/12/17 06:26:37;;;;;;;10.48;5.47;;;8.70;99.90;;;;;;5036177;28;20048;-18
2023/12/17 06:29:03;;;;;;;11.18;5.68;;;8.70;99.90;;;;;;5052670;28;20135;-19
2023/12/17 06:31:30;;;;;;;15.68;7.22;;;8.70;99.90;;;;;;5055628;28;20175;-19
2023/12/17 06:33:56;;;;;;;14.63;6.45;;;8.70;99.90;;;;;;5053897;28;20049;-19
2023/12/17 06:36:22;;;;;;;10.82;5.40;;;8.70;99.90;;;;;;5055554;28;20482;-19
2023/12/17 06:38:48;;;;;;;14.32;6.53;;;8.70;99.90;;;;;;5052598;28;20060;-19
2023/12/17 06:41:14;;;;;;;14.10;7.40;;;8.70;99.90;;;;;;5052627;28;20053;-19
2023/12/17 06:43:40;;;;;;;15.40;7.05;;;8.70;99.90;;;;;;5056091;28;20394;-19
2023/12/17 06:46:07;;;;;;;17.58;7.57;;;8.70;99.90;;;;;;5053181;28;20091;-18
2023/12/17 06:48:34;;;;;;;12.77;6.68;;;8.60;99.90;;;;;;5055416;28;20526;-19
2023/12/17 06:51:03;;;;;;;12.38;6.78;;;8.70;99.90;;;;;;5035928;28;20071;-19
2023/12/17 06:53:29;;;;;;;12.93;7.20;;;8.60;99.90;;;;;;5085748;28;20060;-19
2023/12/17 06:55:55;;;;;;;18.92;6.70;;;8.60;99.90;;;;;;5053197;28;20547;-18
2023/12/17 06:58:21;;;;;;;14.85;5.95;;;8.60;99.90;;;;;;5074160;28;20142;-19
2023/12/17 07:00:47;;;;;;;15.13;6.95;;;8.70;99.90;;;;;;5073859;28;20040;-19
2023/12/17 07:03:14;;;;;;;13.15;6.60;;;8.70;99.90;;;;;;5072176;28;20052;-19
2023/12/17 07:05:40;;;;;;;15.38;6.88;;;8.60;99.90;;;;;;5070693;28;20045;-19
2023/12/17 07:08:06;;;;;;;22.50;8.55;;;8.60;99.90;;;;;;5065508;28;20435;-19
2023/12/17 07:10:31;;;;;;;16.02;7.78;;;8.60;99.90;;;;;;5054169;28;20391;-19
2023/12/17 07:12:57;;;;;;;13.85;7.70;;;8.60;99.90;;;;;;5055159;28;20049;-19
2023/12/17 07:15:23;;;;;;;19.13;9.55;;;8.70;99.90;;;;;;5053677;28;20049;-19
2023/12/17 07:17:49;;;;;;;19.20;9.65;;;8.60;99.90;;;;;;5058740;28;20452;-19
2023/12/17 07:20:15;;;;;;;24.30;10.77;;;8.70;99.90;;;;;;5059117;28;20045;-19
2023/12/17 07:22:41;;;;;;;17.85;8.27;;;8.70;99.90;;;;;;5057567;28;20051;-19
2023/12/17 07:25:07;;;;;;;15.52;10.25;;;8.70;99.90;;;;;;5057792;28;20103;-19
2023/12/17 07:27:33;;;;;;;15.52;7.82;;;8.60;99.90;;;;;;5056993;28;20045;-19
2023/12/17 07:29:59;;;;;;;17.13;8.35;;;8.70;99.90;;;;;;5056885;28;20045;-19
2023/12/17 07:32:24;;;;;;;16.67;10.07;;;8.60;99.90;;;;;;5065858;28;20051;-19
2023/12/17 07:34:50;;;;;;;16.83;8.13;;;8.60;99.90;;;;;;5076804;28;20048;-19
2023/12/17 07:37:16;;;;;;;14.68;7.88;;;8.70;99.90;;;;;;5072533;28;20406;-19
2023/12/17 07:39:42;;;;;;;15.73;8.40;;;8.60;99.90;;;;;;5059070;28;20056;-19
2023/12/17 07:42:08;;;;;;;19.52;9.32;;;8.60;99.90;;;;;;5076857;28;20044;-19
2023/12/17 07:44:34;;;;;;;19.10;9.57;;;8.60;99.90;;;;;;5076576;28;20044;-19
2023/12/17 07:47:00;;;;;;;23.05;10.93;;;8.60;99.90;;;;;;5072005;28;20048;-19
2023/12/17 07:49:26;;;;;;;19.77;9.52;;;8.60;99.90;;;;;;5071579;28;20053;-19
2023/12/17 07:51:52;;;;;;;18.27;9.57;;;8.50;99.90;;;;;;5076464;28;20047;-19
2023/12/17 07:54:19;;;;;;;17.10;9.65;;;8.60;99.90;;;;;;5076422;28;20106;-19
2023/12/17 07:56:45;;;;;;;26.42;11.88;;;8.50;99.90;;;;;;5066740;28;20476;-19
2023/12/17 07:59:10;;;;;;;21.52;9.40;;;8.60;99.90;;;;;;5057152;28;20051;-19
2023/12/17 08:01:36;;;;;;;12.02;7.00;;;8.50;99.90;;;;;;5056183;28;20469;-19
2023/12/17 08:04:02;;;;;;;16.38;7.43;;;8.60;99.90;;;;;;5057032;28;20051;-19
2023/12/17 08:06:28;;;;;;;16.90;8.43;;;8.60;99.90;;;;;;5058946;28;20055;-20
2023/12/17 08:08:54;;;;;;;12.02;6.57;;;8.60;99.90;;;;;;5075921;28;20102;-19
2023/12/17 08:11:20;;;;;;;15.00;7.72;;;8.50;99.90;;;;;;5076735;28;20044;-20
2023/12/17 08:13:46;;;;;;;15.63;8.60;;;8.50;99.90;;;;;;5075567;28;20048;-19
2023/12/17 08:16:13;;;;;;;10.30;5.78;;;8.50;99.90;;;;;;5070999;28;20084;-19
2023/12/17 08:18:39;;;;;;;20.52;7.45;;;8.50;99.90;;;;;;5056786;28;20052;-19
2023/12/17 08:21:05;;;;;;;12.77;6.28;;;8.50;99.90;;;;;;5056841;28;20111;-19
2023/12/17 08:23:31;;;;;;;19.73;11.20;;;8.50;99.90;;;;;;5054678;28;20052;-19
2023/12/17 08:25:57;;;;;;;10.77;6.22;;;8.50;99.90;;;;;;5054555;28;20045;-19
2023/12/17 08:28:23;;;;;;;8.75;4.90;;;8.40;99.90;;;;;;5054818;28;20071;-19
2023/12/17 08:30:49;;;;;;;15.45;6.57;;;8.40;99.90;;;;;;5055652;28;20123;-19
2023/12/17 08:33:16;;;;;;;8.95;5.60;;;8.50;99.90;;;;;;5055619;28;20092;-19
2023/12/17 08:35:44;;;;;;;18.95;8.00;;;8.40;99.90;;;;;;5056234;28;20052;-19
2023/12/17 08:38:09;;;;;;;10.40;5.18;;;8.40;99.90;;;;;;5075554;28;20123;-20
2023/12/17 08:40:37;;;;;;;13.93;6.32;;;8.40;99.90;;;;;;5074335;28;20509;-19
2023/12/17 08:43:04;;;;;;;14.00;8.18;;;8.40;99.90;;;;;;5075458;28;20091;-19
2023/12/17 08:45:30;;;;;;;13.77;7.22;;;8.40;99.90;;;;;;5074878;28;20044;-18
2023/12/17 08:47:56;;;;;;;21.77;8.10;;;8.40;99.90;;;;;;5070914;28;20056;-20
2023/12/17 08:50:22;;;;;;;18.23;6.55;;;8.40;99.90;;;;;;5075876;28;20041;-19
2023/12/17 08:52:48;;;;;;;13.60;6.80;;;8.40;99.90;;;;;;5075219;28;20201;-20
2023/12/17 08:55:14;;;;;;;10.80;5.75;;;8.40;99.90;;;;;;5074031;28;20057;-19
2023/12/17 08:57:40;;;;;;;22.67;10.15;;;8.40;99.90;;;;;;5037138;28;20047;-19
2023/12/17 09:00:06;;;;;;;23.95;10.15;;;8.40;99.90;;;;;;5055326;28;20053;-19
2023/12/17 09:02:35;;;;;;;23.08;10.57;;;8.50;99.90;;;;;;5053859;28;20049;-19
2023/12/17 09:05:05;;;;;;;13.32;7.80;;;8.40;99.90;;;;;;5056691;28;20043;-19
2023/12/17 09:07:31;;;;;;;16.40;9.32;;;8.40;99.90;;;;;;5062382;28;20509;-20
2023/12/17 09:09:57;;;;;;;17.42;9.10;;;8.50;99.90;;;;;;5054992;28;20140;-20
2023/12/17 09:12:22;;;;;;;22.83;10.57;;;8.50;99.90;;;;;;5059947;28;20045;-20
2023/12/17 09:14:49;;;;;;;24.80;10.00;;;8.50;99.90;;;;;;5054824;28;20049;-19
2023/12/17 09:17:15;;;;;;;15.68;7.82;;;8.50;99.90;;;;;;5037012;28;20053;-20
2023/12/17 09:19:41;;;;;;;19.40;8.07;;;8.50;99.90;;;;;;5054436;28;20052;-19
2023/12/17 09:22:07;;;;;;;12.10;5.88;;;8.60;99.90;;;;;;5053638;28;20059;-19
2023/12/17 09:24:33;;;;;;;21.50;8.05;;;8.60;99.90;;;;;;5037859;28;20044;-19
2023/12/17 09:27:00;;;;;;;23.08;7.82;;;8.50;99.90;;;;;;5054953;28;20053;-20
2023/12/17 09:29:25;;;;;;;21.42;7.82;;;8.50;99.90;;;;;;5036928;28;20057;-20
2023/12/17 09:31:51;;;;;;;14.50;6.32;;;8.60;99.90;;;;;;5054518;28;20044;-20
2023/12/17 09:34:17;;;;;;;19.45;5.63;;;8.50;99.90;;;;;;5053282;28;20055;-20
2023/12/17 09:36:44;;;;;;;21.00;8.10;;;8.60;99.90;;;;;;5065557;28;20178;-20
2023/12/17 09:39:09;;;;;;;27.48;9.65;;;8.60;99.90;;;;;;5066035;28;20048;-20
2023/12/17 09:41:36;;;;;;;14.48;7.30;;;8.70;99.90;;;;;;5074528;28;20520;-20
2023/12/17 09:44:04;;;;;;;22.88;8.45;;;8.70;99.90;;;;;;5074020;28;20113;-20
2023/12/17 09:46:30;;;;;;;20.02;7.57;;;8.70;99.90;;;;;;5065652;28;20534;-20
2023/12/17 09:48:56;;;;;;;16.90;7.40;;;8.70;99.90;;;;;;5054228;28;20232;-20
2023/12/17 09:51:26;;;;;;;16.42;4.88;;;8.70;99.90;;;;;;5060682;28;20051;-20
2023/12/17 09:53:54;;;;;;;20.73;7.95;;;8.80;99.90;;;;;;5074063;28;20049;-20
2023/12/17 09:56:21;;;;;;;12.77;5.28;;;8.80;99.90;;;;;;5050258;28;20136;-19
2023/12/17 09:58:47;;;;;;;15.90;6.72;;;8.70;99.90;;;;;;5072041;28;20059;-20
2023/12/17 10:01:13;;;;;;;19.70;5.88;;;8.80;99.90;;;;;;5073235;28;20040;-20
2023/12/17 10:03:38;;;;;;;16.30;4.78;;;8.80;99.90;;;;;;5074477;28;20131;-20
2023/12/17 10:06:05;;;;;;;15.60;6.47;;;8.80;99.90;;;;;;5072742;28;20128;-20
2023/12/17 10:08:32;;;;;;;15.45;6.03;;;8.70;99.90;;;;;;5066361;28;20098;-20
2023/12/17 10:10:57;;;;;;;20.25;7.18;;;8.80;99.90;;;;;;5073856;28;20036;-21
2023/12/17 10:13:23;;;;;;;16.60;5.88;;;8.80;99.90;;;;;;5073821;28;20375;-20
2023/12/17 10:15:51;;;;;;;19.42;6.57;;;8.70;99.90;;;;;;5072481;28;20041;-20
2023/12/17 10:18:23;;;;;;;20.38;5.95;;;8.70;99.90;;;;;;5072523;28;20052;-20
2023/12/17 10:20:50;;;;;;;15.50;5.93;;;8.70;99.90;;;;;;5069608;28;20072;-20
2023/12/17 10:23:16;;;;;;;18.88;7.70;;;8.70;99.90;;;;;;5053648;28;20128;-20
2023/12/17 10:25:43;;;;;;;17.83;7.97;;;8.70;99.90;;;;;;5053639;28;20190;-19
2023/12/17 10:28:10;;;;;;;16.70;8.68;;;8.70;99.90;;;;;;5067727;28;20056;-20
2023/12/17 10:30:37;;;;;;;21.00;10.25;;;8.60;99.90;;;;;;5073551;28;20041;-20
2023/12/17 10:33:05;;;;;;;27.58;11.73;;;8.60;99.90;;;;;;5072283;28;20068;-20
2023/12/17 10:35:31;;;;;;;23.23;13.43;;;8.60;99.90;;;;;;5072016;28;20054;-20
2023/12/17 10:37:58;;;;;;;28.40;12.88;;;8.60;99.90;;;;;;5053795;28;20048;-20
2023/12/17 10:40:25;;;;;;;18.25;10.98;;;8.60;99.90;;;;;;5053285;28;20045;-20
2023/12/17 10:42:53;;;;;;;21.98;11.57;;;8.70;99.90;;;;;;5053023;28;20459;-20
2023/12/17 10:45:20;;;;;;;30.65;11.98;;;8.70;99.90;;;;;;5053201;28;20494;-20
2023/12/17 10:47:56;;;;;;;19.00;11.20;;;8.80;99.90;;;;;;5054800;28;20048;-21
2023/12/17 10:50:23;;;;;;;31.35;12.20;;;8.70;99.90;;;;;;5073447;28;20462;-19
2023/12/17 10:52:49;;;;;;;17.13;10.15;;;8.70;99.90;;;;;;5061268;28;20079;-20
2023/12/17 10:55:17;;;;;;;19.38;10.65;;;8.70;99.90;;;;;;5056034;28;20059;-21
2023/12/17 10:58:03;;;;;;;21.90;11.45;;;8.70;99.90;;;;;;5074845;28;20431;-21
2023/12/17 11:00:31;;;;;;;17.55;8.85;;;8.70;99.90;;;;;;5076226;28;20048;-21
2023/12/17 11:03:05;;;;;;;23.83;11.35;;;8.70;99.90;;;;;;5071786;28;20044;-20
2023/12/17 11:05:31;;;;;;;25.38;12.23;;;8.70;99.90;;;;;;5058324;28;20049;-21
2023/12/17 11:07:56;;;;;;;19.83;11.50;;;8.80;99.90;;;;;;5059071;28;20513;-21
2023/12/17 11:10:23;;;;;;;24.92;12.32;;;8.70;99.90;;;;;;5057120;28;20080;-21
2023/12/17 11:12:49;;;;;;;25.75;11.77;;;8.70;99.90;;;;;;5056537;28;20103;-20
2023/12/17 11:15:23;;;;;;;23.98;14.75;;;8.80;99.90;;;;;;5057143;28;20151;-21
2023/12/17 11:17:53;;;;;;;22.13;12.77;;;8.80;99.90;;;;;;5073897;28;20044;-21
2023/12/17 11:20:19;;;;;;;22.13;12.45;;;8.80;99.90;;;;;;5074837;28;20108;-20
2023/12/17 11:22:46;;;;;;;23.83;11.73;;;8.80;99.90;;;;;;5064862;28;20520;-20
2023/12/17 11:25:12;;;;;;;21.05;10.68;;;8.80;99.90;;;;;;5066984;28;20037;-20
2023/12/17 11:27:39;;;;;;;19.55;10.65;;;8.80;99.90;;;;;;5069279;28;20052;-21
2023/12/17 11:30:31;;;;;;;20.25;10.40;;;8.80;99.90;;;;;;5075649;28;20123;-21
2023/12/17 11:33:01;;;;;;;17.67;10.95;;;8.90;99.90;;;;;;5076124;28;20040;-21
2023/12/17 11:35:29;;;;;;;21.67;11.98;;;8.90;99.90;;;;;;5075346;28;20524;-20
2023/12/17 11:37:56;;;;;;;20.40;10.65;;;8.90;99.90;;;;;;5060156;28;20048;-21
2023/12/17 11:40:22;;;;;;;27.52;15.93;;;8.90;99.90;;;;;;5056475;28;20136;-21
2023/12/17 11:42:57;;;;;;;18.33;11.80;;;9.00;99.90;;;;;;5056534;28;20131;-21
2023/12/17 11:45:45;;;;;;;21.42;13.40;;;8.90;99.90;;;;;;5058351;28;20048;-21
2023/12/17 11:48:15;;;;;;;19.55;11.40;;;9.00;99.90;;;;;;5056474;28;20080;-21
2023/12/17 11:50:49;;;;;;;19.80;12.88;;;9.00;99.90;;;;;;5056866;28;20049;-20
2023/12/17 11:53:26;;;;;;;15.50;10.73;;;9.00;99.90;;;;;;5056338;28;20536;-21
2023/12/17 11:55:56;;;;;;;20.92;10.73;;;9.00;99.90;;;;;;5058246;28;20052;-20
2023/12/17 11:58:23;;;;;;;18.00;11.32;;;9.00;99.90;;;;;;5076273;28;20097;-21
2023/12/17 12:01:09;;;;;;;21.05;12.15;;;9.00;99.90;;;;;;5073711;28;20116;-21
2023/12/17 12:03:37;;;;;;;16.23;11.00;;;9.00;99.90;;;;;;5054834;28;20056;-21
2023/12/17 12:06:12;;;;;;;15.85;9.77;;;9.00;99.90;;;;;;5057161;28;20045;-20
2023/12/17 12:08:45;;;;;;;19.02;10.48;;;8.90;99.90;;;;;;5054834;28;20072;-21
2023/12/17 12:11:12;;;;;;;;;;;9.00;99.90;;;;;;5069143;28;20040;-20
2023/12/17 12:13:43;;;;;;;22.88;11.48;;;8.90;99.90;;;;;;5059194;28;19921;-21
2023/12/17 12:16:12;;;;;;;13.38;9.20;;;8.90;99.90;;;;;;5054859;28;20053;-21
2023/12/17 12:18:38;;;;;;;19.50;10.98;;;9.00;99.90;;;;;;5075129;28;20052;-21
2023/12/17 12:21:21;;;;;;;21.10;10.27;;;8.90;99.90;;;;;;5075395;28;20052;-21
2023/12/17 12:23:55;;;;;;;;;;;8.80;99.90;;;;;;5076769;28;20120;-21
2023/12/17 12:26:21;;;;;;;;;;;8.80;99.90;;;;;;5071083;28;20316;-20
2023/12/17 12:28:58;;;;;;;15.30;9.90;;;8.80;99.90;;;;;;5055749;28;20414;-21
2023/12/17 12:31:25;;;;;;;22.15;10.50;;;8.90;99.90;;;;;;5037659;28;20128;-21
2023/12/17 12:33:59;;;;;;;17.05;10.23;;;8.90;99.90;;;;;;5055894;28;20534;-21
2023/12/17 12:36:45;;;;;;;18.80;11.77;;;8.90;99.90;;;;;;5059487;28;20052;-21
2023/12/17 12:39:12;;;;;;;19.25;11.40;;;9.10;99.90;;;;;;5054493;28;20080;-21
2023/12/17 12:41:46;;;;;;;16.85;10.35;;;9.30;99.90;;;;;;5054797;28;20049;-21
2023/12/17 12:44:13;;;;;;;17.30;10.40;;;9.30;99.90;;;;;;5055265;28;20049;-21
2023/12/17 12:46:41;;;;;;;17.05;11.15;;;9.30;99.90;;;;;;5064103;28;20044;-21